Polfoss — V2PN7 — position and weather

sailwx.info

Track history (hours):
 
Tides and Currents Weather Stations Pressure Air Temp Water Temp Dewpoint Dewpoint Depression Visibility Wind Speed Wind Dir Waves Ship Positions

Polfoss

Last reported at 2016-Oct-01 13:33 UTC. Time now 2016-Oct-01 13:50 UTC.
Position N 53°35' W 000°04'.

Length 82 m; draft 6.4 m.

Type: Cargo ship. MMSI: 305081000.

Date/timePositionNaut miles runAvg speedWind from/ knotsBaromVisibWave heightAir tempDewpointWater temp
2016-Oct-01 13:33N 53°35' W 000°04'0 0.0
2016-Oct-01 04:34N 53°35' W 000°04'0 0.0
2016-Oct-01 03:34N 53°35' W 000°04'0 0.0
2016-Oct-01 00:34N 53°35' W 000°04'0 0.0
2016-Sep-30 22:33N 53°35' W 000°04'0 0.0
2016-Sep-30 20:33N 53°35' W 000°04'0 0.0
2016-Sep-30 17:34N 53°35' W 000°04'0 0.0
2016-Sep-30 16:34N 53°35' W 000°04'0 0.0
2016-Sep-30 14:34N 53°35' W 000°04'0 0.0
2016-Sep-30 13:34N 53°35' W 000°04'0 0.0
2016-Sep-30 10:33N 53°35' W 000°04'0 0.0
2016-Sep-30 08:33N 53°35' W 000°04'0 0.0
2016-Sep-30 06:33N 53°35' W 000°04'2 0.5
2016-Sep-30 03:33N 53°35' W 000°02'2 2.0
2016-Sep-30 02:32N 53°36' E 000°01'0 0.0
2016-Sep-29 23:33N 53°36' E 000°02'0 0.0
2016-Sep-29 21:32N 53°36' E 000°02'0 0.0
2016-Sep-29 20:31N 53°36' E 000°02'0 0.0
2016-Sep-29 19:31N 53°36' E 000°02'0 0.0
2016-Sep-29 16:32N 53°36' E 000°01'1 1.2
2016-Sep-29 15:34N 53°36' W 000°00'8 7.5
2016-Sep-29 14:33N 53°33' E 000°11'7 7.4
2016-Sep-29 13:33N 53°30' E 000°23'42 6.9
2016-Sep-29 07:28N 53°12' E 001°26'111 9.3
2016-Sep-28 19:33N 52°31' E 004°17'14 4.8
2016-Sep-28 16:33N 52°28' E 004°40'0 0.0
2016-Sep-28 15:33N 52°28' E 004°40'0 0.0
2016-Sep-28 12:33N 52°28' E 004°40'0 0.0
2016-Sep-28 08:33N 52°28' E 004°40'0 0.0
2016-Sep-28 03:34N 52°28' E 004°40'0 0.0
2016-Sep-28 02:34N 52°28' E 004°40'0 0.0
2016-Sep-28 01:33N 52°28' E 004°40'0 0.0
2016-Sep-27 23:33N 52°28' E 004°40'0 0.0
2016-Sep-27 19:34N 52°28' E 004°40'0 0.0
2016-Sep-27 14:34N 52°28' E 004°40'0 0.0
2016-Sep-27 13:34N 52°28' E 004°40'0 0.0
2016-Sep-27 10:34N 52°28' E 004°40'36611.4
2016-Sep-26 02:33N 58°33' E 005°22'1212.3
2016-Sep-26 01:33N 58°45' E 005°24'1212.1
2016-Sep-26 00:34N 58°56' E 005°33'3912.1
2016-Sep-25 21:22N 59°34' E 005°14'195 5.9
2016-Sep-24 12:33N 62°45' E 006°33'13 6.5
2016-Sep-24 10:32N 62°53' E 006°56'9 9.2
2016-Sep-24 09:33N 63°01' E 007°04'6210.3
2016-Sep-24 03:33N 63°30' E 009°05'1211.7
2016-Sep-24 02:33N 63°41' E 009°15'2713.7
2016-Sep-24 00:33N 64°06' E 009°37'6913.8
2016-Sep-23 19:33N 64°56' E 011°28'  
Track history (hours):
 
Tides and Currents Weather Stations Pressure Air Temp Water Temp Dewpoint Dewpoint Depression Visibility Wind Speed Wind Dir Waves Ship Positions

Polfoss

Last reported at 2016-Oct-01 13:33 UTC. Time now 2016-Oct-01 13:50 UTC.
Position N 53°35' W 000°04'.

Length 82 m; draft 6.4 m.

Type: Cargo ship. MMSI: 305081000.

Date/timePositionNaut miles runAvg speedWind from/ knotsBaromVisibWave heightAir tempDewpointWater temp
2016-Oct-01 13:33N 53°35' W 000°04'0 0.0
2016-Oct-01 04:34N 53°35' W 000°04'0 0.0
2016-Oct-01 03:34N 53°35' W 000°04'0 0.0
2016-Oct-01 00:34N 53°35' W 000°04'0 0.0
2016-Sep-30 22:33N 53°35' W 000°04'0 0.0
2016-Sep-30 20:33N 53°35' W 000°04'0 0.0
2016-Sep-30 17:34N 53°35' W 000°04'0 0.0
2016-Sep-30 16:34N 53°35' W 000°04'0 0.0
2016-Sep-30 14:34N 53°35' W 000°04'0 0.0
2016-Sep-30 13:34N 53°35' W 000°04'0 0.0
2016-Sep-30 10:33N 53°35' W 000°04'0 0.0
2016-Sep-30 08:33N 53°35' W 000°04'0 0.0
2016-Sep-30 06:33N 53°35' W 000°04'2 0.5
2016-Sep-30 03:33N 53°35' W 000°02'2 2.0
2016-Sep-30 02:32N 53°36' E 000°01'0 0.0
2016-Sep-29 23:33N 53°36' E 000°02'0 0.0
2016-Sep-29 21:32N 53°36' E 000°02'0 0.0
2016-Sep-29 20:31N 53°36' E 000°02'0 0.0
2016-Sep-29 19:31N 53°36' E 000°02'0 0.0
2016-Sep-29 16:32N 53°36' E 000°01'1 1.2
2016-Sep-29 15:34N 53°36' W 000°00'8 7.5
2016-Sep-29 14:33N 53°33' E 000°11'7 7.4
2016-Sep-29 13:33N 53°30' E 000°23'42 6.9
2016-Sep-29 07:28N 53°12' E 001°26'111 9.3
2016-Sep-28 19:33N 52°31' E 004°17'14 4.8
2016-Sep-28 16:33N 52°28' E 004°40'0 0.0
2016-Sep-28 15:33N 52°28' E 004°40'0 0.0
2016-Sep-28 12:33N 52°28' E 004°40'0 0.0
2016-Sep-28 08:33N 52°28' E 004°40'0 0.0
2016-Sep-28 03:34N 52°28' E 004°40'0 0.0
2016-Sep-28 02:34N 52°28' E 004°40'0 0.0
2016-Sep-28 01:33N 52°28' E 004°40'0 0.0
2016-Sep-27 23:33N 52°28' E 004°40'0 0.0
2016-Sep-27 19:34N 52°28' E 004°40'0 0.0
2016-Sep-27 14:34N 52°28' E 004°40'0 0.0
2016-Sep-27 13:34N 52°28' E 004°40'0 0.0
2016-Sep-27 10:34N 52°28' E 004°40'36611.4
2016-Sep-26 02:33N 58°33' E 005°22'1212.3
2016-Sep-26 01:33N 58°45' E 005°24'1212.1
2016-Sep-26 00:34N 58°56' E 005°33'3912.1
2016-Sep-25 21:22N 59°34' E 005°14'195 5.9
2016-Sep-24 12:33N 62°45' E 006°33'13 6.5
2016-Sep-24 10:32N 62°53' E 006°56'9 9.2
2016-Sep-24 09:33N 63°01' E 007°04'6210.3
2016-Sep-24 03:33N 63°30' E 009°05'1211.7
2016-Sep-24 02:33N 63°41' E 009°15'2713.7
2016-Sep-24 00:33N 64°06' E 009°37'6913.8
2016-Sep-23 19:33N 64°56' E 011°28'  

Dump ship's entire track history